Time;durP1;ratioP1;P1;durP2;ratioP2;P2;SDS_P1;SDS_P2;PMS_P1;PMS_P2;Temp;Humidity;BMP_temperature;BMP_pressure;BME280_temperature;BME280_humidity;BME280_pressure;Samples;Min_cycle;Max_cycle;Signal;HPM_P1;HPM_P2
2020/12/17 00:00:09;;;;;;;4.75;2.30;;;9.50;99.90;;;;;;5093176;28;20102;-78
2020/12/17 00:02:35;;;;;;;4.22;2.40;;;9.50;99.90;;;;;;5094441;28;20031;-79
2020/12/17 00:05:00;;;;;;;4.95;2.25;;;9.40;99.90;;;;;;5092846;28;20027;-77
2020/12/17 00:07:26;;;;;;;5.35;2.95;;;9.40;99.90;;;;;;5093663;28;20077;-77
2020/12/17 00:09:51;;;;;;;3.75;2.17;;;9.40;99.90;;;;;;5094324;28;20031;-79
2020/12/17 00:12:17;;;;;;;5.07;2.45;;;9.40;99.90;;;;;;5093833;28;20092;-78
2020/12/17 00:14:42;;;;;;;3.65;1.98;;;9.40;99.90;;;;;;5092570;28;20432;-78
2020/12/17 00:17:08;;;;;;;3.83;1.95;;;9.30;99.90;;;;;;5094432;28;20020;-78
2020/12/17 00:19:33;;;;;;;4.13;2.33;;;9.30;99.90;;;;;;5093662;28;20027;-78
2020/12/17 00:21:59;;;;;;;7.95;2.35;;;9.30;99.90;;;;;;5093601;28;20066;-78
2020/12/17 00:24:25;;;;;;;4.28;1.98;;;9.30;99.90;;;;;;5093584;28;20035;-78
2020/12/17 00:26:50;;;;;;;3.83;2.13;;;9.30;99.90;;;;;;5092425;28;20034;-78
2020/12/17 00:29:16;;;;;;;3.92;2.20;;;9.20;99.90;;;;;;5093607;28;20084;-78
2020/12/17 00:31:41;;;;;;;3.35;2.10;;;9.30;99.90;;;;;;5093634;28;20050;-79
2020/12/17 00:34:07;;;;;;;3.92;2.10;;;9.30;99.90;;;;;;5092330;28;20099;-78
2020/12/17 00:36:32;;;;;;;5.68;2.50;;;9.30;99.90;;;;;;5094095;28;20099;-78
2020/12/17 00:38:58;;;;;;;5.78;2.47;;;9.30;99.90;;;;;;5093617;28;20024;-79
2020/12/17 00:41:23;;;;;;;4.72;2.03;;;9.30;99.90;;;;;;5093409;28;20443;-78
2020/12/17 00:43:49;;;;;;;4.80;2.25;;;9.20;99.90;;;;;;5093595;28;20047;-78
2020/12/17 00:46:15;;;;;;;4.90;2.17;;;9.20;99.90;;;;;;5092292;28;20042;-79
2020/12/17 00:48:42;;;;;;;4.72;2.63;;;9.20;99.90;;;;;;5092387;28;20072;-79
2020/12/17 00:51:07;;;;;;;6.15;2.78;;;9.20;99.90;;;;;;5092278;28;20021;-79
2020/12/17 00:53:33;;;;;;;4.82;2.42;;;9.20;99.90;;;;;;5093434;28;20039;-78
2020/12/17 00:55:59;;;;;;;4.75;2.90;;;9.20;99.90;;;;;;5092410;28;20028;-78
2020/12/17 00:58:25;;;;;;;6.15;3.20;;;9.20;99.90;;;;;;5092172;28;20065;-78
2020/12/17 01:00:50;;;;;;;4.38;2.03;;;9.10;99.90;;;;;;5093344;28;20027;-78
2020/12/17 01:03:16;;;;;;;5.53;2.75;;;9.10;99.90;;;;;;5092102;28;20081;-78
2020/12/17 01:05:41;;;;;;;4.95;2.20;;;9.10;99.90;;;;;;5093717;28;20492;-78
2020/12/17 01:08:07;;;;;;;4.13;2.47;;;9.10;99.90;;;;;;5092101;28;20027;-78
2020/12/17 01:10:33;;;;;;;5.38;2.22;;;9.10;99.90;;;;;;5093282;28;20489;-78
2020/12/17 01:12:58;;;;;;;5.28;3.03;;;9.10;99.90;;;;;;5092153;28;20492;-78
2020/12/17 01:15:24;;;;;;;4.15;2.50;;;9.10;99.90;;;;;;5092184;28;20024;-78
2020/12/17 01:17:50;;;;;;;3.17;2.33;;;9.10;99.90;;;;;;5095108;28;20020;-78
2020/12/17 01:20:16;;;;;;;4.30;2.60;;;9.10;99.90;;;;;;5096051;28;20051;-79
2020/12/17 01:22:42;;;;;;;4.68;2.58;;;9.10;99.90;;;;;;5096449;28;20457;-79
2020/12/17 01:25:07;;;;;;;3.92;2.00;;;9.00;99.90;;;;;;5097165;28;20017;-78
2020/12/17 01:27:33;;;;;;;3.90;2.03;;;9.00;99.90;;;;;;5097409;28;20046;-79
2020/12/17 01:29:59;;;;;;;5.95;2.45;;;9.00;99.90;;;;;;5097365;28;20028;-78
2020/12/17 01:32:24;;;;;;;4.63;2.42;;;9.10;99.90;;;;;;5095701;28;20039;-77
2020/12/17 01:34:50;;;;;;;4.40;2.33;;;9.00;99.90;;;;;;5095944;28;20077;-77
2020/12/17 01:37:16;;;;;;;6.70;2.58;;;9.00;99.90;;;;;;5096634;28;20032;-77
2020/12/17 01:39:42;;;;;;;4.90;2.28;;;9.00;99.90;;;;;;5097169;28;20027;-76
2020/12/17 01:42:08;;;;;;;4.55;1.92;;;9.00;99.90;;;;;;5096852;28;20024;-77
2020/12/17 01:44:41;;;;;;;4.65;2.25;;;9.00;99.90;;;;;;5096769;28;20389;-77
2020/12/17 01:47:07;;;;;;;6.22;2.85;;;9.00;99.90;;;;;;5096658;28;20389;-77
2020/12/17 01:49:33;;;;;;;5.50;2.30;;;9.00;99.90;;;;;;5096523;28;20020;-78
2020/12/17 01:51:59;;;;;;;5.68;2.53;;;9.00;99.90;;;;;;5096610;28;20028;-79
2020/12/17 01:54:25;;;;;;;4.60;2.10;;;9.10;99.90;;;;;;5095179;28;20453;-78
2020/12/17 01:57:02;;;;;;;4.53;2.13;;;9.10;99.90;;;;;;5096304;28;20059;-78
2020/12/17 01:59:41;;;;;;;3.05;1.85;;;9.10;99.90;;;;;;5095177;28;20029;-78
2020/12/17 02:02:10;;;;;;;3.60;1.92;;;9.10;99.90;;;;;;5096714;28;20047;-78
2020/12/17 02:04:36;;;;;;;5.07;2.67;;;9.10;99.90;;;;;;5095059;28;20046;-78
2020/12/17 02:07:01;;;;;;;5.95;2.28;;;9.20;99.90;;;;;;5095058;28;20090;-78
2020/12/17 02:09:27;;;;;;;4.13;2.30;;;9.20;99.90;;;;;;5095142;28;20017;-78
2020/12/17 02:11:57;;;;;;;4.10;1.67;;;9.20;99.90;;;;;;5096249;28;20049;-78
2020/12/17 02:14:24;;;;;;;3.38;1.75;;;9.20;99.90;;;;;;5094931;28;20035;-78
2020/12/17 02:16:50;;;;;;;3.72;2.00;;;9.20;99.90;;;;;;5096311;28;20508;-78
2020/12/17 02:19:16;;;;;;;3.78;2.30;;;9.20;99.90;;;;;;5096262;28;20016;-78
2020/12/17 02:21:41;;;;;;;4.78;1.73;;;9.20;99.90;;;;;;5094903;28;20024;-78
2020/12/17 02:24:07;;;;;;;6.63;2.30;;;9.20;99.90;;;;;;5095001;28;20024;-78
2020/12/17 02:26:33;;;;;;;5.10;1.85;;;9.20;99.90;;;;;;5094761;28;20036;-78
2020/12/17 02:28:59;;;;;;;3.97;2.10;;;9.30;99.90;;;;;;5095348;28;20102;-78
2020/12/17 02:31:25;;;;;;;4.35;2.10;;;9.30;99.90;;;;;;5096673;28;20028;-79
2020/12/17 02:33:51;;;;;;;4.22;2.17;;;9.30;99.90;;;;;;5096582;28;20020;-79
2020/12/17 02:36:18;;;;;;;2.95;1.85;;;9.30;99.90;;;;;;5095302;28;20024;-79
2020/12/17 02:38:44;;;;;;;6.00;1.70;;;9.30;99.90;;;;;;5094526;28;20026;-78
2020/12/17 02:41:10;;;;;;;3.35;1.75;;;9.30;99.90;;;;;;5095567;28;20030;-78
2020/12/17 02:43:35;;;;;;;3.72;2.20;;;9.30;99.90;;;;;;5096037;28;20024;-78
2020/12/17 02:46:01;;;;;;;3.67;2.08;;;9.30;99.90;;;;;;5095905;28;20027;-78
2020/12/17 02:48:26;;;;;;;3.22;1.63;;;9.30;99.90;;;;;;5094457;28;20105;-79
2020/12/17 02:50:52;;;;;;;4.07;2.30;;;9.30;99.90;;;;;;5094126;28;20173;-78
2020/12/17 02:53:17;;;;;;;3.63;1.85;;;9.30;99.90;;;;;;5095185;28;20483;-78
2020/12/17 02:55:43;;;;;;;4.28;2.05;;;9.30;99.90;;;;;;5095671;28;20095;-78
2020/12/17 02:58:08;;;;;;;3.97;2.10;;;9.30;99.90;;;;;;5095135;28;20028;-77
2020/12/17 03:00:34;;;;;;;3.08;1.98;;;9.30;99.90;;;;;;5093755;28;20038;-77
2020/12/17 03:03:00;;;;;;;4.43;2.03;;;9.30;99.90;;;;;;5095089;28;20031;-77
2020/12/17 03:05:26;;;;;;;6.38;2.38;;;9.30;99.90;;;;;;5095514;28;20131;-78
2020/12/17 03:07:51;;;;;;;3.53;2.05;;;9.30;99.90;;;;;;5095254;28;20027;-79
2020/12/17 03:10:17;;;;;;;3.45;2.17;;;9.40;99.90;;;;;;5095298;28;20414;-78
2020/12/17 03:12:43;;;;;;;4.18;1.70;;;9.30;99.90;;;;;;5094032;28;20477;-79
2020/12/17 03:15:10;;;;;;;2.95;1.63;;;9.40;99.90;;;;;;5094855;28;20036;-78
2020/12/17 03:17:36;;;;;;;4.80;2.10;;;9.30;99.90;;;;;;5093801;28;20490;-78
2020/12/17 03:20:04;;;;;;;4.55;2.33;;;9.40;99.90;;;;;;5093440;28;20389;-77
2020/12/17 03:22:29;;;;;;;5.47;1.90;;;9.30;99.90;;;;;;5095324;28;20028;-78
2020/12/17 03:24:57;;;;;;;4.03;2.10;;;9.40;99.90;;;;;;5096628;28;20508;-78
2020/12/17 03:27:23;;;;;;;5.70;2.53;;;9.40;99.90;;;;;;5095935;28;20035;-78
2020/12/17 03:29:48;;;;;;;5.95;2.25;;;9.40;99.90;;;;;;5094982;28;20107;-78
2020/12/17 03:32:14;;;;;;;4.13;2.25;;;9.30;99.90;;;;;;5093210;28;20468;-78
2020/12/17 03:34:39;;;;;;;3.80;2.08;;;9.30;99.90;;;;;;5095087;28;20023;-77
2020/12/17 03:37:05;;;;;;;6.35;1.83;;;9.30;99.90;;;;;;5094637;28;20046;-77
2020/12/17 03:39:31;;;;;;;4.80;2.05;;;9.40;99.90;;;;;;5094144;28;20048;-77
2020/12/17 03:41:56;;;;;;;5.50;1.98;;;9.40;99.90;;;;;;5095104;28;20020;-77
2020/12/17 03:44:22;;;;;;;5.82;2.00;;;9.40;99.90;;;;;;5094538;28;20366;-77
2020/12/17 03:46:47;;;;;;;4.30;1.90;;;9.30;99.90;;;;;;5093083;28;20390;-79
2020/12/17 03:49:13;;;;;;;4.38;2.40;;;9.10;99.90;;;;;;5092989;28;20020;-79
2020/12/17 03:51:38;;;;;;;3.22;1.92;;;9.30;99.90;;;;;;5094527;28;20024;-79
2020/12/17 03:54:04;;;;;;;5.80;2.50;;;9.30;99.90;;;;;;5097765;28;20027;-79
2020/12/17 03:56:30;;;;;;;4.63;2.30;;;9.20;99.90;;;;;;5097349;28;20469;-79
2020/12/17 03:58:56;;;;;;;4.88;2.72;;;9.20;99.90;;;;;;5098236;28;20107;-79
2020/12/17 04:01:22;;;;;;;6.15;3.17;;;9.20;99.90;;;;;;5099234;28;20109;-79
2020/12/17 04:03:47;;;;;;;7.90;3.10;;;9.20;99.90;;;;;;5098834;28;20028;-80
2020/12/17 04:06:13;;;;;;;6.13;2.65;;;9.20;99.90;;;;;;5098109;28;20384;-79
2020/12/17 04:08:38;;;;;;;4.50;2.28;;;9.20;99.90;;;;;;5097340;28;20052;-78
2020/12/17 04:11:08;;;;;;;7.07;3.40;;;9.20;99.90;;;;;;5092722;28;20028;-79
2020/12/17 04:13:34;;;;;;;7.25;3.40;;;9.30;99.90;;;;;;5094190;28;20095;-78
2020/12/17 04:15:59;;;;;;;6.43;2.90;;;9.30;99.90;;;;;;5092769;28;20112;-77
2020/12/17 04:18:25;;;;;;;6.60;3.45;;;9.30;99.90;;;;;;5094419;28;20028;-78
2020/12/17 04:20:50;;;;;;;7.68;3.47;;;9.30;99.90;;;;;;5094445;28;20092;-77
2020/12/17 04:23:16;;;;;;;10.60;4.10;;;9.30;99.90;;;;;;5092702;28;20515;-77
2020/12/17 04:25:42;;;;;;;8.00;4.20;;;9.30;99.90;;;;;;5095343;28;20021;-78
2020/12/17 04:28:08;;;;;;;7.30;4.07;;;9.30;99.90;;;;;;5092500;28;20396;-79
2020/12/17 04:30:33;;;;;;;6.35;3.47;;;9.30;99.90;;;;;;5093700;28;20035;-78
2020/12/17 04:32:59;;;;;;;6.50;3.53;;;9.30;99.90;;;;;;5093802;28;20099;-77
2020/12/17 04:35:24;;;;;;;5.30;3.80;;;9.20;99.90;;;;;;5093398;28;20103;-77
2020/12/17 04:37:50;;;;;;;8.95;4.13;;;9.20;99.90;;;;;;5094663;28;20027;-78
2020/12/17 04:40:16;;;;;;;6.70;4.35;;;9.20;99.90;;;;;;5093255;28;20111;-77
2020/12/17 04:42:44;;;;;;;7.68;4.32;;;9.20;99.90;;;;;;5094877;28;20112;-79
2020/12/17 04:45:10;;;;;;;7.72;4.65;;;9.20;99.90;;;;;;5094903;28;20426;-78
2020/12/17 04:47:38;;;;;;;5.50;4.13;;;9.20;99.90;;;;;;5096011;28;20028;-79
2020/12/17 04:50:07;;;;;;;9.15;4.32;;;9.20;99.90;;;;;;5095680;28;20031;-79
2020/12/17 04:52:37;;;;;;;6.18;4.25;;;9.20;99.90;;;;;;5099628;28;20060;-78
2020/12/17 04:55:04;;;;;;;7.03;3.67;;;9.10;99.90;;;;;;5098010;28;20016;-78
2020/12/17 04:57:31;;;;;;;5.15;3.50;;;9.20;99.90;;;;;;5098575;28;20393;-78
2020/12/17 04:59:57;;;;;;;8.73;4.57;;;9.20;99.90;;;;;;5096737;28;20035;-78
2020/12/17 05:02:23;;;;;;;6.50;4.07;;;9.10;99.90;;;;;;5097887;28;20508;-78
2020/12/17 05:04:51;;;;;;;6.50;4.45;;;9.20;99.90;;;;;;5099584;28;20027;-79
2020/12/17 05:07:19;;;;;;;7.53;4.82;;;9.10;99.90;;;;;;5098240;28;20116;-78
2020/12/17 05:09:46;;;;;;;6.85;4.13;;;9.10;99.90;;;;;;5097781;28;20133;-78
2020/12/17 05:12:12;;;;;;;8.18;4.43;;;9.10;99.90;;;;;;5098670;28;20078;-79
2020/12/17 05:14:38;;;;;;;13.05;6.00;;;9.10;99.90;;;;;;5098778;28;20484;-78
2020/12/17 05:17:05;;;;;;;8.70;4.95;;;9.00;99.90;;;;;;5097339;28;20016;-76
2020/12/17 05:19:31;;;;;;;8.70;5.35;;;9.00;99.90;;;;;;5095793;28;20024;-78
2020/12/17 05:22:00;;;;;;;8.93;4.82;;;9.00;99.90;;;;;;5097244;28;20107;-78
2020/12/17 05:24:27;;;;;;;9.18;5.93;;;9.00;99.90;;;;;;5097212;28;20024;-77
2020/12/17 05:26:55;;;;;;;8.85;5.50;;;9.00;99.90;;;;;;5097103;28;20381;-77
2020/12/17 05:29:21;;;;;;;13.37;5.80;;;9.00;99.90;;;;;;5095763;28;20024;-76
2020/12/17 05:31:47;;;;;;;8.82;5.72;;;9.00;99.90;;;;;;5097267;28;20278;-76
2020/12/17 05:34:14;;;;;;;9.00;5.43;;;9.00;99.90;;;;;;5096246;28;20020;-76
2020/12/17 05:36:40;;;;;;;9.25;5.95;;;9.00;99.90;;;;;;5097445;28;20150;-77
2020/12/17 05:39:16;;;;;;;10.25;6.47;;;9.00;99.90;;;;;;5097263;28;20024;-77
2020/12/17 05:41:46;;;;;;;9.90;6.10;;;9.00;99.90;;;;;;5097284;28;20055;-76
2020/12/17 05:44:21;;;;;;;10.63;6.28;;;9.10;99.90;;;;;;5095933;28;20020;-77
2020/12/17 05:46:48;;;;;;;10.80;6.60;;;9.00;99.90;;;;;;5097180;28;20101;-77
2020/12/17 05:49:15;;;;;;;12.40;7.45;;;9.00;99.90;;;;;;5097042;28;20043;-77
2020/12/17 05:51:42;;;;;;;11.38;6.45;;;8.90;99.90;;;;;;5096944;28;20056;-77
2020/12/17 05:54:22;;;;;;;13.07;7.70;;;8.90;99.90;;;;;;5097017;28;20020;-77
2020/12/17 05:57:09;;;;;;;12.90;7.15;;;8.90;99.90;;;;;;5096679;28;20449;-77
2020/12/17 05:59:35;;;;;;;11.45;6.75;;;8.90;99.90;;;;;;5097120;28;20427;-77
2020/12/17 06:02:28;;;;;;;12.38;7.60;;;8.80;99.90;;;;;;5094686;28;20021;-77
2020/12/17 06:05:14;;;;;;;13.63;7.63;;;8.80;99.90;;;;;;5096127;28;20473;-77
2020/12/17 06:07:48;;;;;;;14.32;7.45;;;9.80;99.90;;;;;;5095015;28;20477;-76
2020/12/17 06:10:27;;;;;;;17.17;9.18;;;8.90;99.90;;;;;;5097267;28;20473;-77
2020/12/17 06:12:57;;;;;;;14.32;8.27;;;8.90;99.90;;;;;;5096111;28;20529;-80
2020/12/17 06:15:32;;;;;;;13.10;7.63;;;8.90;99.90;;;;;;5094785;28;20073;-78
2020/12/17 06:17:59;;;;;;;15.32;8.52;;;8.90;99.90;;;;;;5097600;28;20012;-78
2020/12/17 06:20:31;;;;;;;17.58;8.32;;;8.80;99.90;;;;;;5095353;28;20116;-79
2020/12/17 06:22:59;;;;;;;17.73;9.30;;;8.80;99.90;;;;;;5098576;28;20032;-80
2020/12/17 06:25:26;;;;;;;10.27;5.50;;;8.80;99.90;;;;;;5096622;28;20052;-79
2020/12/17 06:27:53;;;;;;;15.85;8.18;;;8.80;99.90;;;;;;5103502;28;20023;-80
2020/12/17 06:30:28;;;;;;;18.75;8.50;;;8.80;99.90;;;;;;5095987;28;20041;-79
2020/12/17 06:32:55;;;;;;;11.73;6.97;;;8.80;99.90;;;;;;5096751;28;20035;-78
2020/12/17 06:35:48;;;;;;;15.55;7.25;;;8.80;99.90;;;;;;5096055;28;20491;-79
2020/12/17 06:38:15;;;;;;;14.43;8.02;;;8.80;99.90;;;;;;5095940;28;20020;-77
2020/12/17 06:40:41;;;;;;;13.70;8.32;;;8.70;99.90;;;;;;5094280;28;20477;-78
2020/12/17 06:43:12;;;;;;;14.38;7.93;;;8.70;99.90;;;;;;5094326;28;20023;-77
2020/12/17 06:45:38;;;;;;;15.95;7.53;;;8.70;99.90;;;;;;5095565;28;20016;-78
2020/12/17 06:48:32;;;;;;;13.25;6.25;;;8.70;99.90;;;;;;5094085;28;20020;-77
2020/12/17 06:50:58;;;;;;;12.80;7.55;;;8.70;99.90;;;;;;5095280;28;20481;-78
2020/12/17 06:53:38;;;;;;;14.05;5.78;;;8.70;99.90;;;;;;5095450;28;20545;-78
2020/12/17 06:56:04;;;;;;;12.65;6.93;;;8.70;99.90;;;;;;5095459;28;20058;-79
2020/12/17 06:58:29;;;;;;;12.63;6.65;;;8.70;99.90;;;;;;5094397;28;20043;-78
2020/12/17 07:00:55;;;;;;;13.88;6.88;;;8.70;99.90;;;;;;5095806;28;20488;-78
2020/12/17 07:03:45;;;;;;;11.55;6.72;;;8.70;99.90;;;;;;5095286;28;20529;-78
2020/12/17 07:06:20;;;;;;;13.90;6.88;;;8.70;99.90;;;;;;5093916;28;20081;-78
2020/12/17 07:08:49;;;;;;;15.93;8.27;;;8.70;99.90;;;;;;5095749;28;20020;-78
2020/12/17 07:11:43;;;;;;;11.60;6.28;;;8.70;99.90;;;;;;5095070;28;20081;-79
2020/12/17 07:14:18;;;;;;;13.15;6.97;;;8.70;99.90;;;;;;5131670;22;20059;-79
2020/12/17 07:16:50;;;;;;;14.05;7.07;;;8.70;99.90;;;;;;5107938;28;20103;-79
2020/12/17 07:19:29;;;;;;;18.52;8.13;;;8.70;99.90;;;;;;5105465;28;20016;-79
2020/12/17 07:22:12;;;;;;;12.60;6.95;;;8.70;99.90;;;;;;5099196;28;20024;-79
2020/12/17 07:24:39;;;;;;;13.07;7.07;;;8.70;99.90;;;;;;5093858;28;20072;-78
2020/12/17 07:27:13;;;;;;;13.50;7.35;;;8.70;99.90;;;;;;5097536;28;20066;-81
2020/12/17 07:29:47;;;;;;;15.02;7.63;;;8.60;99.90;;;;;;5096438;28;20150;-79
2020/12/17 07:32:32;;;;;;;21.58;7.22;;;8.60;99.90;;;;;;5093612;28;20084;-78
2020/12/17 07:35:15;;;;;;;12.18;7.30;;;8.60;99.90;;;;;;5095221;28;20024;-79
2020/12/17 07:37:47;;;;;;;15.45;7.63;;;8.60;99.90;;;;;;5094639;28;20363;-79
2020/12/17 07:40:18;;;;;;;12.90;6.13;;;8.70;99.90;;;;;;5094716;28;20024;-79
2020/12/17 07:42:57;;;;;;;17.60;8.02;;;8.60;99.90;;;;;;5095542;28;20039;-78
2020/12/17 07:45:49;;;;;;;13.10;7.28;;;8.70;99.90;;;;;;5094608;28;20032;-79
2020/12/17 07:48:38;;;;;;;13.50;7.10;;;8.70;99.90;;;;;;5095789;28;20031;-80
2020/12/17 07:51:12;;;;;;;17.77;8.30;;;8.70;99.90;;;;;;5097460;28;20028;-80
2020/12/17 07:53:38;;;;;;;14.65;7.03;;;8.70;99.90;;;;;;5098175;28;20021;-79
2020/12/17 07:56:05;;;;;;;14.90;7.90;;;8.60;99.90;;;;;;5097750;28;20027;-79
2020/12/17 07:58:31;;;;;;;18.77;7.97;;;8.60;99.90;;;;;;5096748;28;20040;-80
2020/12/17 08:00:57;;;;;;;17.38;7.90;;;8.70;99.90;;;;;;5096339;28;20480;-77
2020/12/17 08:03:24;;;;;;;14.30;7.72;;;8.70;99.90;;;;;;5099045;28;20027;-80
2020/12/17 08:05:51;;;;;;;15.40;7.93;;;8.70;99.90;;;;;;5099350;28;20017;-79
2020/12/17 08:08:20;;;;;;;17.20;8.40;;;8.70;99.90;;;;;;5100316;28;20024;-80
2020/12/17 08:10:46;;;;;;;15.27;8.57;;;8.80;99.90;;;;;;5101585;28;20103;-79
2020/12/17 08:13:14;;;;;;;13.90;7.95;;;8.80;99.90;;;;;;5095823;28;20074;-80
2020/12/17 08:15:39;;;;;;;16.27;8.57;;;8.80;99.90;;;;;;5094662;28;20059;-78
2020/12/17 08:18:05;;;;;;;18.00;9.13;;;8.80;99.90;;;;;;5092532;28;20432;-78
2020/12/17 08:20:32;;;;;;;14.80;8.30;;;8.80;99.90;;;;;;5093451;28;20473;-79
2020/12/17 08:22:58;;;;;;;17.15;9.10;;;8.80;99.90;;;;;;5093290;28;20020;-80
2020/12/17 08:25:28;;;;;;;16.42;8.38;;;8.80;99.90;;;;;;5092343;28;20035;-77
2020/12/17 08:27:56;;;;;;;19.02;9.10;;;8.80;99.90;;;;;;5092683;28;20016;-78
2020/12/17 08:30:22;;;;;;;14.68;8.00;;;8.80;99.90;;;;;;5099029;28;20485;-79
2020/12/17 08:32:49;;;;;;;16.63;8.35;;;8.90;99.90;;;;;;5098186;28;20066;-79
2020/12/17 08:35:21;;;;;;;15.00;8.68;;;8.90;99.90;;;;;;5096840;28;20024;-77
2020/12/17 08:37:51;;;;;;;14.80;7.95;;;8.90;99.90;;;;;;5095381;28;20085;-82
2020/12/17 08:40:22;;;;;;;14.57;8.18;;;9.00;99.90;;;;;;5102488;28;20066;-82
2020/12/17 08:42:52;;;;;;;16.42;8.98;;;9.00;99.90;;;;;;5101224;28;20074;-81
2020/12/17 08:45:20;;;;;;;13.75;7.95;;;9.10;99.90;;;;;;5097341;28;20047;-81
2020/12/17 08:47:50;;;;;;;12.95;7.53;;;9.10;99.90;;;;;;5095761;28;20024;-78
2020/12/17 08:50:17;;;;;;;15.02;7.25;;;9.10;99.90;;;;;;5092282;28;20050;-79
2020/12/17 08:52:43;;;;;;;12.95;6.93;;;9.10;99.90;;;;;;5093522;28;20039;-77
2020/12/17 08:55:11;;;;;;;10.82;6.30;;;9.10;99.90;;;;;;5092975;28;20020;-77
2020/12/17 08:57:37;;;;;;;10.05;5.72;;;9.20;99.90;;;;;;5093324;28;20026;-77
2020/12/17 09:00:15;;;;;;;14.63;6.63;;;9.20;99.90;;;;;;5092183;28;20028;-77
2020/12/17 09:02:41;;;;;;;10.90;5.97;;;9.20;99.90;;;;;;5093503;28;20032;-77
2020/12/17 09:05:11;;;;;;;12.38;5.50;;;9.20;99.90;;;;;;5092110;28;20020;-77
2020/12/17 09:07:40;;;;;;;11.30;5.80;;;9.20;99.90;;;;;;5092030;28;20107;-77
2020/12/17 09:10:10;;;;;;;12.07;6.97;;;9.20;99.90;;;;;;5093208;28;20117;-77
2020/12/17 09:12:35;;;;;;;12.45;6.60;;;9.20;99.90;;;;;;5092974;28;20491;-77
2020/12/17 09:15:10;;;;;;;8.68;5.63;;;9.20;99.90;;;;;;5093574;28;20040;-78
2020/12/17 09:17:36;;;;;;;9.15;5.38;;;9.20;99.90;;;;;;5093122;28;20024;-78
2020/12/17 09:20:20;;;;;;;9.63;4.75;;;9.30;99.90;;;;;;5093071;28;20023;-77
2020/12/17 09:22:46;;;;;;;11.77;4.80;;;9.20;99.90;;;;;;5093255;28;20560;-77
2020/12/17 09:25:13;;;;;;;7.40;4.55;;;9.30;99.90;;;;;;5091760;28;20028;-77
2020/12/17 09:27:40;;;;;;;12.02;6.32;;;9.30;99.90;;;;;;5094053;28;20539;-79
2020/12/17 09:30:08;;;;;;;9.45;4.03;;;9.40;99.90;;;;;;5093349;28;20046;-78
2020/12/17 09:32:35;;;;;;;8.55;3.83;;;9.40;99.90;;;;;;5091803;28;20169;-78
2020/12/17 09:35:12;;;;;;;9.82;4.05;;;9.40;99.90;;;;;;5093978;28;20485;-78
2020/12/17 09:37:40;;;;;;;9.35;3.15;;;9.40;99.90;;;;;;5094995;28;20031;-78
2020/12/17 09:40:10;;;;;;;6.85;2.97;;;9.50;99.90;;;;;;5095885;28;20040;-78
2020/12/17 09:42:36;;;;;;;7.32;3.00;;;9.50;99.90;;;;;;5096914;28;20020;-77
2020/12/17 09:45:19;;;;;;;9.57;3.67;;;9.90;99.90;;;;;;5098573;28;20031;-78
2020/12/17 09:47:45;;;;;;;7.60;3.92;;;9.50;99.90;;;;;;5098841;28;20039;-79
2020/12/17 09:50:15;;;;;;;9.73;3.25;;;9.40;99.90;;;;;;5100298;28;20491;-79
2020/12/17 09:52:40;;;;;;;;;;;11.70;99.90;;;;;;5098017;28;20016;-80
2020/12/17 09:55:06;;;;;;;6.95;2.60;;;9.30;99.90;;;;;;5097665;28;19946;-79
2020/12/17 09:57:39;;;;;;;9.15;2.55;;;9.50;99.90;;;;;;5102882;28;20171;-80
2020/12/17 10:00:10;;;;;;;9.27;2.88;;;9.50;99.90;;;;;;5101553;28;20047;-80
2020/12/17 10:02:37;;;;;;;6.85;2.35;;;9.50;99.90;;;;;;5102126;28;20075;-79
2020/12/17 10:05:03;;;;;;;7.20;2.88;;;9.60;99.90;;;;;;5103245;28;20024;-80
2020/12/17 10:07:29;;;;;;;6.43;2.25;;;9.60;99.90;;;;;;5101361;28;20028;-79
2020/12/17 10:09:55;;;;;;;7.85;2.65;;;9.70;99.90;;;;;;5101401;28;20484;-80
2020/12/17 10:12:20;;;;;;;7.63;1.73;;;9.70;99.90;;;;;;5102196;28;20036;-80
2020/12/17 10:14:46;;;;;;;9.23;2.38;;;9.80;99.90;;;;;;5102328;28;20054;-80
2020/12/17 10:17:11;;;;;;;6.40;1.88;;;9.80;99.90;;;;;;5102640;28;20091;-80
2020/12/17 10:19:40;;;;;;;8.25;2.80;;;9.80;99.90;;;;;;5103430;28;20020;-80
2020/12/17 10:22:19;;;;;;;8.00;2.42;;;9.80;99.90;;;;;;5102701;28;20078;-80
2020/12/17 10:24:50;;;;;;;1.85;1.20;;;9.80;99.90;;;;;;5103076;28;20050;-80
2020/12/17 10:27:34;;;;;;;5.82;2.17;;;10.00;99.90;;;;;;5103602;28;20034;-80
2020/12/17 10:30:06;;;;;;;7.38;1.92;;;10.00;99.90;;;;;;5102798;28;20030;-79
2020/12/17 10:32:52;;;;;;;6.85;1.65;;;9.60;99.90;;;;;;5099353;28;20024;-79
2020/12/17 10:35:40;;;;;;;;;;;;;;;;;;;;;
2020/12/17 10:38:53;;;;;;;2.63;1.60;;;11.20;99.90;;;;;;5095810;28;20020;-78
2020/12/17 10:41:24;;;;;;;4.40;1.92;;;10.20;99.90;;;;;;5095414;28;20028;-78
2020/12/17 10:43:51;;;;;;;2.88;1.55;;;10.10;99.90;;;;;;5094355;28;20039;-78
2020/12/17 10:46:16;;;;;;;10.07;2.10;;;10.10;99.90;;;;;;5096095;28;20073;-79
2020/12/17 10:48:42;;;;;;;4.03;1.58;;;10.00;99.90;;;;;;5095039;28;20028;-78
2020/12/17 10:51:07;;;;;;;8.80;1.63;;;10.00;99.90;;;;;;5094156;28;20090;-78
2020/12/17 10:53:33;;;;;;;7.93;2.55;;;10.00;99.90;;;;;;5094729;28;20032;-78
2020/12/17 10:55:58;;;;;;;6.93;1.73;;;10.00;99.90;;;;;;5094426;28;20044;-78
2020/12/17 10:58:24;;;;;;;6.93;1.67;;;9.90;99.90;;;;;;5094430;28;20016;-78
2020/12/17 11:00:50;;;;;;;3.50;1.10;;;9.90;99.90;;;;;;5094049;28;20380;-78
2020/12/17 11:03:15;;;;;;;5.60;1.10;;;10.00;99.90;;;;;;5096801;28;20120;-79
2020/12/17 11:05:41;;;;;;;7.25;2.47;;;10.00;99.90;;;;;;5099618;28;20047;-80
2020/12/17 11:08:06;;;;;;;5.68;1.15;;;10.10;99.90;;;;;;5098474;28;20481;-78
2020/12/17 11:10:32;;;;;;;8.40;1.23;;;10.10;99.90;;;;;;5100550;28;20016;-78
2020/12/17 11:12:57;;;;;;;6.97;1.67;;;10.10;99.90;;;;;;5097554;28;20031;-79
2020/12/17 11:15:23;;;;;;;3.30;1.38;;;10.10;99.90;;;;;;5096119;28;20043;-80
2020/12/17 11:17:51;;;;;;;6.40;1.85;;;10.10;99.90;;;;;;5101068;28;20017;-79
2020/12/17 11:20:18;;;;;;;5.23;1.10;;;10.20;99.90;;;;;;5095994;28;20020;-80
2020/12/17 11:22:44;;;;;;;12.90;1.90;;;10.20;99.90;;;;;;5093907;28;20035;-79
2020/12/17 11:25:11;;;;;;;10.85;2.35;;;10.20;99.90;;;;;;5095571;28;20024;-79
2020/12/17 11:27:37;;;;;;;5.15;1.85;;;10.20;99.90;;;;;;5095246;28;20043;-80
2020/12/17 11:30:05;;;;;;;7.25;1.58;;;10.30;99.90;;;;;;5095699;28;20035;-79
2020/12/17 11:32:34;;;;;;;3.28;1.98;;;10.30;99.90;;;;;;5094363;28;20020;-78
2020/12/17 11:35:05;;;;;;;9.07;2.42;;;10.30;99.90;;;;;;5093547;28;20110;-79
2020/12/17 11:37:32;;;;;;;9.95;2.55;;;10.30;99.90;;;;;;5094197;28;20417;-79
2020/12/17 11:39:58;;;;;;;6.25;1.80;;;10.30;99.90;;;;;;5095045;28;20012;-79
2020/12/17 11:42:23;;;;;;;8.10;1.70;;;10.40;99.90;;;;;;5094724;28;20400;-80
2020/12/17 11:44:49;;;;;;;13.40;2.05;;;10.30;99.90;;;;;;5097964;28;20046;-80
2020/12/17 11:47:15;;;;;;;8.50;2.53;;;10.30;99.90;;;;;;5096156;28;20095;-78
2020/12/17 11:49:41;;;;;;;6.72;1.65;;;10.20;99.90;;;;;;5093449;28;20098;-79
2020/12/17 11:52:06;;;;;;;8.80;2.92;;;10.10;99.90;;;;;;5095671;28;20504;-79
2020/12/17 11:54:32;;;;;;;12.00;2.47;;;10.10;99.90;;;;;;5095027;28;20058;-79
2020/12/17 11:56:57;;;;;;;9.77;2.05;;;9.90;99.90;;;;;;5093643;28;20020;-78
2020/12/17 11:59:23;;;;;;;11.60;3.35;;;10.00;99.90;;;;;;5093889;28;20024;-79
2020/12/17 12:01:48;;;;;;;6.80;1.35;;;10.00;99.90;;;;;;5100206;28;20031;-79
2020/12/17 12:04:14;;;;;;;5.35;1.00;;;10.10;99.90;;;;;;5096232;28;20031;-79
2020/12/17 12:06:39;;;;;;;8.35;1.50;;;10.10;99.90;;;;;;5094059;28;20066;-79
2020/12/17 12:09:08;;;;;;;8.20;1.30;;;10.10;99.90;;;;;;5096251;28;20092;-79
2020/12/17 12:11:34;;;;;;;5.78;1.30;;;10.20;99.90;;;;;;5095038;28;20032;-79
2020/12/17 12:14:00;;;;;;;6.38;1.98;;;10.20;99.90;;;;;;5093742;28;20107;-80
2020/12/17 12:16:25;;;;;;;10.85;1.13;;;10.20;99.90;;;;;;5095186;28;20031;-79
2020/12/17 12:18:51;;;;;;;8.55;0.93;;;10.20;99.90;;;;;;5093430;28;20020;-80
2020/12/17 12:21:17;;;;;;;7.28;1.40;;;10.20;99.90;;;;;;5094850;28;20077;-79
2020/12/17 12:23:46;;;;;;;11.73;1.27;;;10.20;99.90;;;;;;5095476;28;20060;-79
2020/12/17 12:26:12;;;;;;;6.93;1.77;;;10.10;99.90;;;;;;5096038;28;20027;-80
2020/12/17 12:28:38;;;;;;;7.57;1.10;;;10.20;99.90;;;;;;5098980;28;20025;-80
2020/12/17 12:31:04;;;;;;;6.97;0.70;;;10.20;99.90;;;;;;5100382;28;20039;-79
2020/12/17 12:33:30;;;;;;;10.35;1.15;;;10.20;99.90;;;;;;5097109;28;20016;-80
2020/12/17 12:35:56;;;;;;;4.07;1.13;;;10.20;99.90;;;;;;5097303;28;20111;-80
2020/12/17 12:38:22;;;;;;;7.32;0.57;;;10.10;99.90;;;;;;5097692;28;20047;-79
2020/12/17 12:40:48;;;;;;;8.85;1.10;;;10.10;99.90;;;;;;5097184;28;20016;-80
2020/12/17 12:43:13;;;;;;;10.75;1.05;;;10.10;99.90;;;;;;5098284;28;20020;-81
2020/12/17 12:45:39;;;;;;;3.53;1.05;;;10.10;99.90;;;;;;5097455;28;20381;-80
2020/12/17 12:48:05;;;;;;;4.22;1.27;;;10.10;99.90;;;;;;5094203;28;20020;-79
2020/12/17 12:50:33;;;;;;;6.22;0.98;;;10.10;99.90;;;;;;5092783;28;20035;-79
2020/12/17 12:52:59;;;;;;;6.63;1.45;;;10.10;99.90;;;;;;5093877;28;20115;-78
2020/12/17 12:55:24;;;;;;;6.43;1.15;;;10.00;99.90;;;;;;5092419;28;20571;-79
2020/12/17 12:57:52;;;;;;;32.00;2.53;;;10.00;99.90;;;;;;5094217;28;20099;-79